Time;durP1;ratioP1;P1;durP2;ratioP2;P2;SDS_P1;SDS_P2;PMS_P1;PMS_P2;Temp;Humidity;BMP_temperature;BMP_pressure;BME280_temperature;BME280_humidity;BME280_pressure;Samples;Min_cycle;Max_cycle;Signal;HPM_P1;HPM_P2
2022/11/05 00:11:17;;;;;;;3.27;3.07;;;22.50;66.50;;;;;;5004205;28;20474;-76
2022/11/05 00:16:45;;;;;;;2.57;2.43;;;22.50;66.50;;;;;;5011596;28;20486;-76
2022/11/05 00:19:15;;;;;;;2.67;2.47;;;22.50;66.50;;;;;;4993621;28;20457;-76
2022/11/05 00:27:16;;;;;;;3.00;2.70;;;22.50;66.50;;;;;;5004637;28;20454;-76
2022/11/05 00:29:44;;;;;;;3.40;2.57;;;22.50;66.50;;;;;;5026764;28;20450;-76
2022/11/05 00:32:12;;;;;;;2.63;2.47;;;22.50;66.40;;;;;;4988960;28;20467;-76
2022/11/05 00:34:40;;;;;;;2.50;2.30;;;22.50;66.40;;;;;;5026399;28;20476;-76
2022/11/05 00:37:08;;;;;;;2.33;2.23;;;22.50;66.40;;;;;;5012025;28;20868;-76
2022/11/05 00:39:36;;;;;;;2.90;2.60;;;22.50;66.40;;;;;;5008799;28;20500;-75
2022/11/05 00:45:01;;;;;;;2.40;2.20;;;22.50;66.40;;;;;;5019408;28;20481;-76
2022/11/05 00:50:15;;;;;;;2.70;2.50;;;22.50;66.30;;;;;;5012626;28;20524;-75
2022/11/05 00:52:55;;;;;;;2.83;2.60;;;22.50;66.40;;;;;;5003750;28;20489;-76
2022/11/05 00:55:27;;;;;;;2.50;2.30;;;22.50;66.40;;;;;;5000018;28;20990;-76
2022/11/05 00:57:55;;;;;;;2.33;2.23;;;22.50;66.40;;;;;;5012024;28;20514;-76
2022/11/05 01:00:27;;;;;;;2.27;2.17;;;22.50;66.40;;;;;;5012405;28;20470;-76
2022/11/05 01:02:58;;;;;;;2.60;2.40;;;22.50;66.40;;;;;;5013250;28;20959;-76
2022/11/05 01:05:27;;;;;;;4.50;2.43;;;22.50;66.40;;;;;;5025536;28;20452;-76
2022/11/05 01:07:56;;;;;;;3.00;2.80;;;22.50;66.40;;;;;;5004652;28;20494;-76
2022/11/05 01:10:24;;;;;;;2.70;2.57;;;22.50;66.40;;;;;;5025452;28;20445;-76
2022/11/05 01:12:53;;;;;;;2.40;2.20;;;22.50;66.40;;;;;;5006842;28;20452;-76
2022/11/05 01:15:21;;;;;;;2.70;2.50;;;22.50;66.30;;;;;;5032614;28;20480;-76
2022/11/05 01:17:52;;;;;;;3.37;3.07;;;22.50;66.30;;;;;;5022776;28;20963;-76
2022/11/05 01:20:20;;;;;;;2.73;2.53;;;22.50;66.40;;;;;;5030783;28;20452;-75
2022/11/05 01:22:48;;;;;;;2.90;2.40;;;22.50;66.40;;;;;;5033002;28;20954;-76
2022/11/05 01:25:16;;;;;;;2.30;2.10;;;22.50;66.40;;;;;;5032898;28;20428;-76
2022/11/05 01:27:45;;;;;;;2.70;2.50;;;22.50;66.30;;;;;;5023832;28;20953;-76
2022/11/05 01:30:14;;;;;;;2.83;2.47;;;22.50;66.30;;;;;;5013417;28;20453;-76
2022/11/05 01:32:42;;;;;;;3.00;2.90;;;22.50;66.30;;;;;;5012887;28;20484;-75
2022/11/05 01:35:14;;;;;;;2.20;2.10;;;22.50;66.30;;;;;;5020890;28;20475;-75
2022/11/05 01:37:43;;;;;;;3.17;2.83;;;22.50;66.30;;;;;;5003893;28;20454;-76
2022/11/05 01:40:13;;;;;;;2.73;2.53;;;22.50;66.30;;;;;;4992806;28;20480;-75
2022/11/05 01:42:41;;;;;;;2.23;2.13;;;22.40;66.30;;;;;;5004738;28;20457;-76
2022/11/05 01:45:14;;;;;;;2.20;2.10;;;22.50;66.30;;;;;;4997964;28;20453;-75
2022/11/05 01:47:51;;;;;;;2.17;2.07;;;22.40;66.30;;;;;;4998749;28;20453;-75
2022/11/05 01:50:30;;;;;;;2.37;2.20;;;22.40;66.30;;;;;;5010762;28;20454;-75
2022/11/05 01:53:04;;;;;;;2.03;1.93;;;22.40;66.30;;;;;;5012621;28;20853;-76
2022/11/05 01:55:36;;;;;;;2.43;2.23;;;22.40;66.30;;;;;;5012410;28;20476;-76
2022/11/05 01:58:09;;;;;;;2.17;1.67;;;22.50;66.30;;;;;;5011114;28;20826;-75
2022/11/05 02:00:39;;;;;;;2.20;2.10;;;22.40;66.30;;;;;;5012743;28;20452;-75
2022/11/05 02:03:07;;;;;;;2.47;2.37;;;22.40;66.30;;;;;;5012152;28;20432;-75
2022/11/05 02:05:40;;;;;;;2.10;2.00;;;22.40;66.30;;;;;;5012373;28;20459;-75
2022/11/05 02:08:13;;;;;;;2.70;2.50;;;22.40;66.30;;;;;;5015063;28;20469;-75
2022/11/05 02:10:44;;;;;;;2.77;2.30;;;22.50;66.30;;;;;;5021388;28;20450;-76
2022/11/05 02:13:12;;;;;;;1.97;1.87;;;22.40;66.20;;;;;;4998223;28;20491;-76
2022/11/05 02:15:51;;;;;;;2.00;1.90;;;22.40;66.20;;;;;;5025005;28;20510;-76
2022/11/05 02:18:30;;;;;;;2.40;2.20;;;22.40;66.20;;;;;;5009075;28;20564;-75
2022/11/05 02:21:24;;;;;;;2.30;2.10;;;22.40;66.20;;;;;;5007256;28;20474;-75
2022/11/05 02:24:17;;;;;;;2.73;2.43;;;22.40;66.20;;;;;;5001632;28;20775;-75
2022/11/05 02:27:10;;;;;;;2.67;2.10;;;22.40;66.20;;;;;;5009473;28;21040;-76
2022/11/05 02:30:06;;;;;;;2.53;2.33;;;22.40;66.20;;;;;;4992476;28;20464;-75
2022/11/05 02:32:56;;;;;;;2.17;2.07;;;22.40;66.10;;;;;;4992768;28;20434;-75
2022/11/05 02:35:37;;;;;;;2.63;2.43;;;22.40;66.10;;;;;;5001340;28;20959;-75
2022/11/05 02:38:09;;;;;;;2.40;2.20;;;22.40;66.10;;;;;;5022151;28;20473;-75
2022/11/05 02:40:48;;;;;;;2.47;2.27;;;22.40;66.00;;;;;;5011827;28;20459;-75
2022/11/05 02:43:24;;;;;;;2.63;2.40;;;22.40;66.00;;;;;;5013126;28;20747;-75
2022/11/05 02:46:00;;;;;;;2.10;2.00;;;22.40;66.00;;;;;;5026422;28;20574;-76
2022/11/05 02:48:39;;;;;;;2.63;2.30;;;22.40;66.00;;;;;;4994606;28;20460;-76
2022/11/05 02:51:14;;;;;;;2.00;1.90;;;22.40;66.00;;;;;;4991584;28;20975;-75
2022/11/05 02:53:49;;;;;;;1.90;1.80;;;22.40;66.00;;;;;;4996461;28;20577;-75
2022/11/05 02:56:22;;;;;;;2.33;2.13;;;22.40;66.00;;;;;;5029262;28;20478;-75
2022/11/05 02:58:50;;;;;;;2.33;2.13;;;22.40;66.00;;;;;;5015003;28;20494;-76
2022/11/05 03:01:18;;;;;;;2.00;1.90;;;22.40;65.90;;;;;;5029891;28;20451;-75
2022/11/05 03:03:51;;;;;;;2.23;2.03;;;22.40;66.00;;;;;;5031033;28;20921;-75
2022/11/05 03:06:40;;;;;;;3.37;2.40;;;22.40;66.00;;;;;;5031368;28;20491;-75
2022/11/05 03:09:39;;;;;;;3.70;2.13;;;22.40;66.00;;;;;;5025537;28;20467;-76
2022/11/05 03:12:20;;;;;;;2.50;2.30;;;22.40;65.90;;;;;;5031951;28;20441;-75
2022/11/05 03:14:55;;;;;;;1.97;1.87;;;22.40;66.10;;;;;;5019282;28;20564;-75
2022/11/05 03:17:33;;;;;;;2.33;2.20;;;22.40;65.90;;;;;;5027314;28;20468;-75
2022/11/05 03:20:11;;;;;;;2.13;2.03;;;22.40;65.90;;;;;;5006318;28;20467;-75
2022/11/05 03:22:44;;;;;;;2.20;2.00;;;22.40;65.90;;;;;;5011931;28;20440;-75
2022/11/05 03:25:17;;;;;;;2.13;2.00;;;22.40;65.90;;;;;;5031483;28;20955;-76
2022/11/05 03:27:49;;;;;;;1.77;1.67;;;22.40;65.90;;;;;;5025024;28;20456;-76
2022/11/05 03:30:19;;;;;;;2.40;2.20;;;22.30;65.80;;;;;;5013206;28;20454;-75
2022/11/05 03:32:53;;;;;;;1.90;1.80;;;22.40;66.00;;;;;;4998159;28;21187;-75
2022/11/05 03:35:27;;;;;;;2.17;2.07;;;22.30;66.00;;;;;;5033090;28;20849;-75
2022/11/05 03:37:58;;;;;;;2.30;1.83;;;22.30;66.00;;;;;;5021772;28;20807;-75
2022/11/05 03:40:28;;;;;;;2.70;2.50;;;22.30;65.90;;;;;;5009538;28;20486;-75
2022/11/05 03:42:59;;;;;;;1.60;1.50;;;22.30;66.00;;;;;;4999940;28;20452;-75
2022/11/05 03:45:32;;;;;;;2.17;2.07;;;22.30;66.00;;;;;;4994974;28;20442;-75
2022/11/05 03:48:02;;;;;;;2.13;1.90;;;22.30;66.00;;;;;;5023590;28;20484;-75
2022/11/05 03:50:38;;;;;;;3.70;2.07;;;22.30;66.00;;;;;;5014575;28;20453;-75
2022/11/05 03:53:14;;;;;;;2.03;1.80;;;22.30;66.00;;;;;;5014451;28;21160;-75
2022/11/05 03:55:50;;;;;;;2.23;1.73;;;22.30;66.00;;;;;;5015005;28;20440;-75
2022/11/05 03:58:21;;;;;;;2.47;2.30;;;22.30;65.90;;;;;;5013898;28;20468;-75
2022/11/05 04:00:50;;;;;;;1.57;1.47;;;22.30;66.00;;;;;;5014372;28;20438;-75
2022/11/05 04:03:18;;;;;;;1.83;1.73;;;22.30;65.90;;;;;;5013793;28;20460;-75
2022/11/05 04:13:22;;;;;;;1.70;1.60;;;22.30;65.90;;;;;;4997649;28;20450;-75
2022/11/05 04:14:10;;;;;;;1.70;1.60;;;22.30;65.80;;;;;;4991252;28;20473;-76
2022/11/05 04:24:53;;;;;;;1.93;1.50;;;22.30;65.70;;;;;;5034303;28;20440;-75
2022/11/05 04:27:22;;;;;;;2.17;1.80;;;22.20;65.60;;;;;;5024019;28;20551;-76
2022/11/05 04:32:36;;;;;;;1.63;1.53;;;22.30;65.60;;;;;;5016091;28;20470;-76
2022/11/05 04:35:04;;;;;;;1.83;1.73;;;22.30;65.60;;;;;;5026360;28;20459;-76
2022/11/05 04:37:34;;;;;;;1.87;1.77;;;22.30;65.70;;;;;;5013372;28;20476;-76
2022/11/05 04:40:02;;;;;;;1.67;1.60;;;22.20;65.70;;;;;;5026500;28;20853;-76
2022/11/05 04:42:30;;;;;;;1.10;1.10;;;22.30;65.70;;;;;;5023828;28;20448;-76
2022/11/05 04:44:58;;;;;;;3.47;1.90;;;22.30;65.60;;;;;;5019603;28;20454;-76
2022/11/05 04:47:26;;;;;;;1.50;1.40;;;22.30;65.70;;;;;;5018080;28;20463;-76
2022/11/05 04:49:54;;;;;;;1.90;1.80;;;22.30;65.60;;;;;;5019281;28;20459;-76
2022/11/05 04:52:22;;;;;;;1.87;1.77;;;22.30;65.60;;;;;;5033660;28;20432;-76
2022/11/05 04:54:52;;;;;;;1.60;1.50;;;22.30;65.70;;;;;;5033408;28;20799;-76
2022/11/05 04:57:20;;;;;;;1.70;1.60;;;22.30;65.60;;;;;;5033356;28;20472;-75
2022/11/05 04:59:48;;;;;;;1.80;1.70;;;22.30;65.70;;;;;;5012792;28;20445;-76
2022/11/05 05:02:16;;;;;;;1.83;1.73;;;22.30;65.70;;;;;;5012139;28;20460;-76
2022/11/05 05:04:45;;;;;;;1.53;1.43;;;22.30;65.70;;;;;;4998782;28;20468;-76
2022/11/05 05:07:13;;;;;;;2.00;1.80;;;22.30;65.70;;;;;;5012898;28;20472;-77
2022/11/05 05:09:41;;;;;;;1.50;1.47;;;22.30;65.70;;;;;;5001170;28;20828;-77
2022/11/05 05:12:10;;;;;;;1.67;1.57;;;22.30;65.60;;;;;;5008510;28;20464;-77
2022/11/05 05:14:39;;;;;;;3.70;1.30;;;22.30;65.60;;;;;;5003762;28;20476;-77
2022/11/05 05:17:07;;;;;;;1.90;1.80;;;22.20;65.60;;;;;;5024950;28;20468;-78
2022/11/05 05:21:37;;;;;;;2.07;1.87;;;22.20;65.60;;;;;;5003852;28;20472;-77
2022/11/05 05:22:22;;;;;;;1.63;1.53;;;22.20;65.60;;;;;;5010338;28;20448;-78
2022/11/05 05:24:50;;;;;;;1.70;1.60;;;22.20;65.60;;;;;;4995217;28;20551;-78
2022/11/05 05:27:22;;;;;;;1.57;1.40;;;22.20;65.60;;;;;;5012987;28;20437;-78
2022/11/05 05:29:50;;;;;;;2.07;1.83;;;22.20;65.70;;;;;;5011364;28;20478;-78
2022/11/05 05:32:18;;;;;;;1.63;1.53;;;22.20;65.70;;;;;;5003547;28;20458;-78
2022/11/05 05:34:46;;;;;;;1.47;1.20;;;22.20;65.70;;;;;;5017716;28;20449;-78
2022/11/05 05:37:14;;;;;;;1.53;1.43;;;22.30;65.70;;;;;;5012870;28;20480;-77
2022/11/05 05:39:43;;;;;;;1.50;1.40;;;22.20;65.80;;;;;;5024301;28;20500;-77
2022/11/05 05:42:11;;;;;;;1.43;1.20;;;22.20;65.80;;;;;;5010149;28;20453;-77
2022/11/05 05:44:41;;;;;;;1.43;1.33;;;22.20;65.80;;;;;;5000240;28;20468;-76
2022/11/05 05:47:09;;;;;;;1.90;1.80;;;22.20;65.80;;;;;;5003887;28;20464;-77
2022/11/05 05:49:37;;;;;;;1.30;1.30;;;22.30;65.80;;;;;;5019467;28;20494;-77
2022/11/05 05:52:06;;;;;;;2.60;1.93;;;22.20;65.80;;;;;;5003359;28;20572;-77
2022/11/05 05:54:34;;;;;;;1.40;1.30;;;22.30;65.80;;;;;;5026303;28;20463;-77
2022/11/05 05:57:09;;;;;;;1.70;1.40;;;22.30;65.90;;;;;;5032156;28;20470;-76
2022/11/05 05:59:37;;;;;;;1.57;1.17;;;22.20;65.90;;;;;;5023929;28;20448;-76
2022/11/05 06:02:07;;;;;;;1.50;1.40;;;22.30;65.80;;;;;;5013549;28;20468;-77
2022/11/05 06:04:35;;;;;;;1.60;1.50;;;22.30;65.80;;;;;;5016430;28;20788;-76
2022/11/05 06:07:03;;;;;;;1.83;1.43;;;22.30;65.80;;;;;;5008238;28;20483;-77
2022/11/05 06:09:31;;;;;;;2.47;2.37;;;22.30;65.80;;;;;;4992421;28;20465;-77
2022/11/05 06:11:59;;;;;;;1.43;1.33;;;22.30;65.80;;;;;;5001041;28;20455;-77
2022/11/05 06:14:27;;;;;;;1.80;1.57;;;22.30;65.80;;;;;;5005528;28;20935;-76
2022/11/05 06:16:55;;;;;;;1.47;1.37;;;22.30;65.70;;;;;;5006205;28;20451;-77
2022/11/05 06:19:25;;;;;;;1.47;1.37;;;22.30;65.70;;;;;;5004810;28;20461;-77
2022/11/05 06:21:53;;;;;;;1.30;1.30;;;22.30;65.70;;;;;;5003260;28;20944;-76
2022/11/05 06:24:21;;;;;;;1.43;1.33;;;22.30;65.80;;;;;;5008573;28;20457;-76
2022/11/05 06:26:49;;;;;;;1.70;1.60;;;22.30;65.70;;;;;;5020454;28;20505;-77
2022/11/05 06:29:17;;;;;;;2.33;1.53;;;22.30;65.60;;;;;;5018168;28;20471;-76
2022/11/05 06:31:46;;;;;;;1.60;1.50;;;22.30;65.70;;;;;;5018680;28;20441;-77
2022/11/05 06:34:14;;;;;;;1.50;1.40;;;22.30;65.60;;;;;;4993113;28;20458;-77
2022/11/05 06:36:43;;;;;;;1.43;1.37;;;22.30;65.60;;;;;;5017066;28;20448;-76
2022/11/05 06:39:12;;;;;;;1.70;1.60;;;22.30;65.60;;;;;;5007978;28;20480;-76
2022/11/05 06:41:40;;;;;;;1.47;1.37;;;22.20;65.60;;;;;;5028838;28;21045;-76
2022/11/05 06:44:28;;;;;;;1.33;1.30;;;22.20;65.50;;;;;;5013627;28;20464;-77
2022/11/05 06:46:56;;;;;;;1.40;1.30;;;22.20;65.60;;;;;;5001929;28;20448;-76
2022/11/05 06:49:24;;;;;;;2.40;1.67;;;22.20;65.60;;;;;;4992575;28;20456;-77
2022/11/05 06:51:54;;;;;;;1.77;1.67;;;22.20;65.60;;;;;;4991975;28;20445;-76
2022/11/05 06:54:22;;;;;;;1.00;1.00;;;22.20;65.70;;;;;;5002657;28;20901;-77
2022/11/05 06:56:50;;;;;;;1.00;0.90;;;22.20;65.70;;;;;;4997604;28;20831;-76
2022/11/05 06:59:18;;;;;;;1.37;1.27;;;22.20;65.70;;;;;;5032000;28;20468;-77
2022/11/05 07:01:46;;;;;;;1.50;1.40;;;22.20;65.70;;;;;;5027478;28;20460;-77
2022/11/05 07:04:14;;;;;;;1.50;1.40;;;22.20;65.70;;;;;;4992937;28;20453;-76
2022/11/05 07:06:42;;;;;;;1.40;1.30;;;22.20;65.70;;;;;;4995697;28;20445;-76
2022/11/05 07:09:12;;;;;;;1.80;1.70;;;22.20;65.70;;;;;;4995862;28;20480;-76
2022/11/05 07:11:40;;;;;;;1.97;1.83;;;22.20;65.70;;;;;;5009822;28;20978;-76
2022/11/05 07:14:08;;;;;;;1.43;1.40;;;22.20;65.70;;;;;;5015466;28;20804;-76
2022/11/05 07:16:36;;;;;;;1.67;1.30;;;22.20;65.70;;;;;;5015940;28;20441;-76
2022/11/05 07:19:04;;;;;;;2.00;1.77;;;22.20;65.70;;;;;;5023979;28;20471;-76
2022/11/05 07:21:32;;;;;;;1.47;1.37;;;22.20;65.70;;;;;;5034539;28;20501;-76
2022/11/05 07:24:01;;;;;;;1.43;1.33;;;22.20;65.70;;;;;;5022067;28;20461;-76
2022/11/05 07:26:30;;;;;;;3.47;1.57;;;22.20;65.70;;;;;;5021076;28;20457;-76
2022/11/05 07:29:02;;;;;;;1.43;1.33;;;22.20;65.70;;;;;;4996241;28;20555;-76
2022/11/05 07:31:30;;;;;;;1.40;1.30;;;22.20;65.70;;;;;;5005407;28;20954;-77
2022/11/05 07:33:58;;;;;;;1.17;1.17;;;22.20;65.70;;;;;;5020384;28;20490;-77
2022/11/05 07:36:26;;;;;;;1.20;1.20;;;22.20;65.70;;;;;;5015233;28;20494;-76
2022/11/05 07:38:54;;;;;;;1.63;1.53;;;22.20;65.70;;;;;;5022583;28;20483;-77
2022/11/05 07:41:28;;;;;;;1.33;1.23;;;22.30;65.70;;;;;;5018248;28;20483;-77
2022/11/05 07:43:57;;;;;;;1.20;1.10;;;22.30;65.70;;;;;;5017256;28;20468;-77
2022/11/05 07:46:25;;;;;;;1.10;1.10;;;22.30;65.70;;;;;;5017172;28;20457;-77
2022/11/05 07:48:53;;;;;;;1.30;1.20;;;22.30;65.70;;;;;;5024223;28;20461;-78
2022/11/05 07:51:22;;;;;;;1.23;1.13;;;22.30;65.70;;;;;;5024715;28;20455;-77
2022/11/05 07:53:50;;;;;;;1.33;1.23;;;22.30;65.70;;;;;;5017834;28;20495;-77
2022/11/05 07:56:18;;;;;;;1.43;1.30;;;22.30;65.70;;;;;;5018233;28;20471;-76
2022/11/05 07:58:46;;;;;;;1.80;1.20;;;22.30;65.70;;;;;;5018770;28;20575;-76
2022/11/05 08:01:15;;;;;;;4.77;1.37;;;22.30;65.70;;;;;;5023840;28;20527;-76
2022/11/05 08:03:44;;;;;;;1.63;1.53;;;22.30;65.70;;;;;;5016361;28;20506;-76
2022/11/05 08:06:12;;;;;;;1.30;1.20;;;22.30;65.60;;;;;;5016527;28;20462;-77
2022/11/05 08:08:40;;;;;;;2.63;1.43;;;22.30;65.60;;;;;;5021813;28;20812;-77
2022/11/05 08:11:11;;;;;;;1.43;1.37;;;22.40;65.60;;;;;;5025838;28;20464;-76
2022/11/05 08:13:41;;;;;;;1.63;1.30;;;22.40;65.50;;;;;;5019209;28;20479;-76
2022/11/05 08:16:09;;;;;;;1.70;1.60;;;22.40;65.40;;;;;;5008481;28;20441;-77
2022/11/05 08:18:39;;;;;;;1.50;1.40;;;22.40;65.50;;;;;;5013098;28;21002;-77
2022/11/05 08:21:08;;;;;;;1.23;1.10;;;22.40;65.50;;;;;;4994453;28;20453;-75
2022/11/05 08:23:37;;;;;;;1.40;1.30;;;22.40;65.50;;;;;;5000726;28;20461;-76
2022/11/05 08:26:06;;;;;;;3.40;1.53;;;22.40;65.50;;;;;;5005694;28;20457;-76
2022/11/05 08:28:34;;;;;;;2.00;1.30;;;22.40;65.60;;;;;;5012274;28;20958;-76
2022/11/05 08:31:02;;;;;;;2.10;1.30;;;22.40;65.70;;;;;;5006747;28;20464;-82
2022/11/05 08:33:31;;;;;;;1.27;1.17;;;22.40;65.80;;;;;;5001446;28;20454;-77
2022/11/05 08:36:04;;;;;;;2.10;1.60;;;22.40;65.90;;;;;;5004844;28;20469;-72
2022/11/05 08:38:32;;;;;;;1.67;1.30;;;22.40;66.00;;;;;;4998770;28;20481;-72
2022/11/05 08:41:00;;;;;;;1.97;1.37;;;22.40;66.10;;;;;;5001281;28;21058;-73
2022/11/05 08:43:28;;;;;;;1.63;1.40;;;22.40;66.10;;;;;;5007160;28;20463;-78
2022/11/05 08:45:56;;;;;;;1.43;1.10;;;22.40;66.10;;;;;;5003478;28;20458;-67
2022/11/05 08:48:24;;;;;;;1.17;1.17;;;22.40;66.10;;;;;;5002149;28;21138;-73
2022/11/05 08:50:53;;;;;;;0.93;0.93;;;22.40;66.10;;;;;;5008929;28;20476;-70
2022/11/05 08:53:22;;;;;;;1.53;1.40;;;22.40;66.20;;;;;;4996968;28;20496;-72
2022/11/05 08:55:50;;;;;;;3.00;1.30;;;22.40;66.40;;;;;;5002392;28;20544;-71
2022/11/05 08:58:19;;;;;;;1.97;1.67;;;22.40;66.40;;;;;;5007744;28;20471;-71
2022/11/05 09:00:49;;;;;;;4.80;1.50;;;22.40;66.50;;;;;;5001566;28;20452;-71
2022/11/05 09:03:44;;;;;;;1.67;1.37;;;22.40;66.60;;;;;;5001097;28;20988;-70
2022/11/05 09:06:13;;;;;;;2.33;1.37;;;22.40;66.60;;;;;;4994213;28;20799;-70
2022/11/05 09:08:42;;;;;;;1.60;1.30;;;22.40;66.70;;;;;;4999563;28;20474;-72
2022/11/05 09:11:10;;;;;;;1.77;1.30;;;22.40;66.70;;;;;;5002722;28;20471;-71
2022/11/05 09:13:39;;;;;;;1.20;1.10;;;22.40;66.70;;;;;;5001209;28;20551;-73
2022/11/05 09:16:13;;;;;;;1.60;1.50;;;22.40;66.70;;;;;;5003111;28;20457;-71
2022/11/05 09:18:41;;;;;;;1.50;1.10;;;22.40;66.70;;;;;;5002572;28;20460;-71
2022/11/05 09:21:10;;;;;;;1.40;1.30;;;22.40;66.70;;;;;;5011771;28;20463;-71
2022/11/05 09:23:38;;;;;;;1.63;1.53;;;22.40;66.70;;;;;;4994497;28;20548;-71
2022/11/05 09:26:12;;;;;;;2.10;1.40;;;22.40;66.70;;;;;;4995948;28;20463;-70
2022/11/05 09:28:42;;;;;;;1.30;1.03;;;22.40;66.80;;;;;;5006830;28;20995;-70
2022/11/05 09:31:11;;;;;;;1.43;1.33;;;22.40;66.70;;;;;;5005228;28;20457;-71
2022/11/05 09:33:41;;;;;;;1.93;1.17;;;22.40;66.70;;;;;;5007234;28;20471;-71
2022/11/05 09:36:09;;;;;;;1.27;1.20;;;22.40;66.70;;;;;;5002816;28;20454;-70
2022/11/05 09:38:37;;;;;;;2.40;1.53;;;22.40;66.80;;;;;;5004778;28;20469;-71
2022/11/05 09:41:12;;;;;;;1.57;1.10;;;22.40;66.70;;;;;;4998277;28;20509;-70
2022/11/05 09:43:44;;;;;;;1.30;1.17;;;22.40;66.70;;;;;;4996308;28;20956;-70
2022/11/05 09:46:18;;;;;;;1.00;1.00;;;22.40;66.80;;;;;;4996629;28;20796;-71
2022/11/05 09:48:49;;;;;;;1.33;1.23;;;22.40;66.80;;;;;;5006623;28;20532;-71
2022/11/05 09:51:18;;;;;;;2.20;1.17;;;22.40;66.80;;;;;;4996808;28;20504;-71
2022/11/05 09:53:52;;;;;;;1.60;1.30;;;22.30;66.80;;;;;;4999578;28;20497;-72
2022/11/05 09:56:24;;;;;;;3.40;1.30;;;22.40;66.90;;;;;;5007427;28;20516;-72
2022/11/05 09:58:57;;;;;;;1.30;1.20;;;22.30;66.90;;;;;;5003842;28;20468;-71
2022/11/05 10:01:29;;;;;;;1.67;1.57;;;22.30;66.90;;;;;;5000917;28;20457;-71
2022/11/05 10:04:00;;;;;;;2.10;1.17;;;22.40;67.10;;;;;;5002791;28;20477;-71
2022/11/05 10:06:29;;;;;;;2.13;1.50;;;22.30;67.60;;;;;;5002247;28;20452;-71
2022/11/05 10:09:17;;;;;;;4.73;1.37;;;22.30;67.50;;;;;;5007182;28;20957;-72
2022/11/05 10:11:51;;;;;;;2.70;1.37;;;22.30;67.40;;;;;;5005022;28;20458;-71
2022/11/05 10:14:24;;;;;;;1.73;1.40;;;22.30;67.40;;;;;;4988667;28;20498;-70
2022/11/05 10:16:57;;;;;;;5.43;2.93;;;22.30;67.20;;;;;;4999666;28;20466;-72
2022/11/05 10:19:29;;;;;;;9.10;3.13;;;22.30;68.70;;;;;;5003604;28;20469;-72
2022/11/05 10:22:06;;;;;;;6.73;2.83;;;22.30;71.40;;;;;;5002894;28;20453;-72
2022/11/05 10:24:35;;;;;;;2.87;2.67;;;22.40;72.10;;;;;;5004902;28;20793;-72
2022/11/05 10:27:11;;;;;;;13.17;5.30;;;22.40;70.40;;;;;;5006210;28;20812;-72
2022/11/05 10:29:43;;;;;;;7.50;4.27;;;22.40;69.30;;;;;;5004913;28;20816;-71
2022/11/05 10:32:17;;;;;;;7.23;2.83;;;22.40;69.30;;;;;;5000436;28;20453;-73
2022/11/05 10:34:46;;;;;;;9.90;3.77;;;22.40;69.20;;;;;;5000818;28;20889;-72
2022/11/05 10:37:14;;;;;;;6.90;2.90;;;22.40;69.20;;;;;;5003045;28;20465;-72
2022/11/05 10:39:42;;;;;;;6.97;2.80;;;22.30;69.00;;;;;;5009149;28;20485;-73
2022/11/05 10:42:27;;;;;;;7.30;4.10;;;22.30;68.90;;;;;;5004271;28;20465;-73
2022/11/05 10:45:01;;;;;;;7.33;3.63;;;22.30;68.80;;;;;;5003685;28;20450;-72
2022/11/05 10:47:44;;;;;;;7.10;3.00;;;22.30;68.80;;;;;;5004868;28;20485;-72
2022/11/05 10:50:16;;;;;;;5.60;4.00;;;22.30;68.80;;;;;;4996318;28;20463;-72
2022/11/05 10:52:59;;;;;;;4.47;2.50;;;22.40;68.90;;;;;;5003967;28;20497;-72
2022/11/05 10:55:29;;;;;;;6.43;2.40;;;22.60;68.50;;;;;;5004575;28;21640;-73
2022/11/05 10:58:18;;;;;;;3.53;2.90;;;22.80;67.90;;;;;;4998760;28;20456;-73
2022/11/05 11:01:01;;;;;;;4.10;2.27;;;22.90;67.80;;;;;;5003135;28;20493;-75
2022/11/05 11:03:38;;;;;;;4.57;2.30;;;23.00;67.30;;;;;;5001101;28;20988;-76
2022/11/05 11:06:21;;;;;;;4.10;2.03;;;23.00;67.00;;;;;;5002781;28;20561;-75
2022/11/05 11:08:51;;;;;;;7.10;3.10;;;23.00;67.00;;;;;;4997886;28;20546;-75
2022/11/05 11:11:28;;;;;;;2.63;2.40;;;23.00;67.50;;;;;;4990997;28;20466;-77
2022/11/05 11:14:03;;;;;;;6.80;2.60;;;23.00;67.10;;;;;;5004175;28;20441;-76
2022/11/05 11:16:37;;;;;;;5.20;2.47;;;23.00;67.30;;;;;;5015799;28;20459;-77
2022/11/05 11:19:24;;;;;;;3.67;2.47;;;23.00;67.10;;;;;;5009243;28;20499;-75
2022/11/05 11:22:21;;;;;;;2.77;2.07;;;23.00;67.00;;;;;;4997384;28;20466;-76
2022/11/05 11:24:52;;;;;;;6.00;2.40;;;23.00;66.80;;;;;;5019279;28;20456;-80
2022/11/05 11:27:29;;;;;;;5.00;2.60;;;23.00;66.60;;;;;;5003588;28;20462;-83
2022/11/05 11:30:01;;;;;;;6.93;2.20;;;22.90;66.70;;;;;;5019656;28;20470;-77
2022/11/05 11:32:35;;;;;;;3.00;1.90;;;22.90;66.70;;;;;;5014968;28;20446;-76
2022/11/05 11:35:05;;;;;;;3.23;2.93;;;22.90;66.80;;;;;;4990749;28;20460;-76
2022/11/05 11:37:40;;;;;;;2.70;2.00;;;22.80;66.90;;;;;;5010269;28;21080;-76
2022/11/05 11:40:16;;;;;;;7.20;2.90;;;22.70;66.90;;;;;;5004172;28;20574;-77
2022/11/05 11:42:47;;;;;;;7.60;3.43;;;22.70;67.00;;;;;;5022763;28;20780;-77
2022/11/05 11:45:20;;;;;;;3.23;2.00;;;22.60;67.10;;;;;;5015958;28;20496;-77
2022/11/05 11:47:50;;;;;;;3.53;2.23;;;22.60;67.20;;;;;;4997111;28;21274;-78
2022/11/05 11:50:38;;;;;;;2.90;2.10;;;22.50;67.30;;;;;;5013576;28;20448;-77
2022/11/05 11:53:30;;;;;;;6.20;2.07;;;22.50;67.30;;;;;;4995701;28;20474;-80
2022/11/05 11:56:05;;;;;;;4.03;2.20;;;22.50;67.40;;;;;;5016744;28;20453;-80
2022/11/05 11:58:43;;;;;;;2.43;2.23;;;22.40;67.40;;;;;;5032966;28;20452;-80
2022/11/05 12:01:33;;;;;;;4.20;2.40;;;22.40;67.50;;;;;;5009904;28;20480;-82
2022/11/05 12:04:14;;;;;;;2.73;1.93;;;22.40;67.50;;;;;;5013652;28;20464;-80
2022/11/05 12:06:47;;;;;;;2.50;1.83;;;22.40;67.70;;;;;;5007141;28;20460;-80
2022/11/05 12:09:23;;;;;;;2.93;2.40;;;22.30;67.60;;;;;;5019205;28;20447;-81
2022/11/05 12:12:00;;;;;;;2.60;1.87;;;22.30;67.70;;;;;;5017987;28;20457;-75
2022/11/05 12:14:36;;;;;;;4.70;2.10;;;22.30;67.80;;;;;;5010392;28;20833;-75
2022/11/05 12:17:38;;;;;;;2.73;2.23;;;22.30;67.90;;;;;;5013075;28;20453;-75
2022/11/05 12:20:34;;;;;;;2.53;2.07;;;22.20;67.90;;;;;;5000295;28;20473;-74
2022/11/05 12:23:32;;;;;;;3.90;2.20;;;22.20;68.00;;;;;;5002235;28;20473;-74
2022/11/05 12:26:08;;;;;;;2.10;1.90;;;22.20;68.00;;;;;;5000742;28;20453;-74
2022/11/05 12:29:17;;;;;;;2.13;1.50;;;22.20;68.00;;;;;;5016590;28;20468;-74
2022/11/05 12:31:54;;;;;;;3.60;2.00;;;22.20;68.10;;;;;;4996011;28;21096;-75
2022/11/05 12:34:38;;;;;;;2.10;1.90;;;22.20;68.00;;;;;;5002466;28;20460;-74
2022/11/05 12:37:29;;;;;;;2.13;2.03;;;22.20;68.10;;;;;;5000953;28;20459;-74
2022/11/05 12:40:17;;;;;;;2.90;1.87;;;22.20;68.00;;;;;;5002908;28;20612;-74
2022/11/05 12:42:57;;;;;;;2.07;1.87;;;22.20;68.00;;;;;;5008086;28;20514;-74
2022/11/05 12:45:39;;;;;;;1.77;1.67;;;22.20;68.00;;;;;;5010965;28;20819;-74
2022/11/05 12:48:22;;;;;;;2.60;1.97;;;22.20;68.00;;;;;;5001664;28;20545;-75
2022/11/05 12:51:13;;;;;;;2.10;1.80;;;22.20;68.00;;;;;;5000450;28;20461;-74
2022/11/05 12:53:52;;;;;;;2.33;2.13;;;22.20;68.00;;;;;;5005947;28;20485;-75
2022/11/05 12:56:30;;;;;;;2.10;1.60;;;22.20;67.90;;;;;;5009743;28;20460;-75
2022/11/05 12:59:04;;;;;;;3.30;2.10;;;22.20;67.90;;;;;;5005498;28;20445;-75
2022/11/05 13:01:36;;;;;;;2.57;1.70;;;22.20;67.90;;;;;;5010074;28;20477;-75
2022/11/05 13:04:13;;;;;;;1.47;1.37;;;22.20;67.90;;;;;;5003164;28;20449;-74
2022/11/05 13:06:46;;;;;;;7.53;1.83;;;22.20;67.90;;;;;;5002644;28;20470;-74
2022/11/05 13:09:19;;;;;;;3.07;1.83;;;22.20;67.90;;;;;;4996947;28;20461;-75
2022/11/05 13:11:51;;;;;;;3.00;1.67;;;22.20;67.90;;;;;;5016017;28;20481;-75
2022/11/05 13:14:23;;;;;;;2.70;2.30;;;22.20;67.90;;;;;;4998436;28;20471;-75
2022/11/05 13:16:55;;;;;;;2.77;2.23;;;22.20;67.90;;;;;;4994657;28;20468;-75
2022/11/05 13:19:28;;;;;;;3.20;2.10;;;22.10;67.90;;;;;;4995660;28;20483;-74
2022/11/05 13:22:06;;;;;;;1.77;1.30;;;22.10;67.90;;;;;;5005315;28;20481;-75
2022/11/05 13:24:39;;;;;;;1.53;1.43;;;22.10;68.00;;;;;;5001504;28;20523;-75
2022/11/05 13:27:22;;;;;;;1.63;1.53;;;22.10;68.00;;;;;;5003454;28;20461;-74
2022/11/05 13:29:53;;;;;;;1.70;1.60;;;22.10;68.00;;;;;;4998456;28;20460;-74
2022/11/05 13:32:29;;;;;;;1.77;1.67;;;22.10;68.00;;;;;;5003688;28;20462;-74
2022/11/05 13:34:58;;;;;;;2.20;2.00;;;22.10;68.10;;;;;;5009801;28;20452;-75
2022/11/05 13:40:20;;;;;;;1.60;1.50;;;22.00;68.10;;;;;;4997934;28;20496;-75
2022/11/05 13:43:17;;;;;;;2.30;2.10;;;22.00;68.10;;;;;;5001698;28;20971;-75
2022/11/05 13:46:00;;;;;;;2.63;1.80;;;22.00;68.20;;;;;;4999859;28;20457;-75
2022/11/05 13:48:59;;;;;;;4.53;1.83;;;22.00;68.20;;;;;;5007144;28;20532;-75
2022/11/05 13:51:44;;;;;;;2.50;2.00;;;22.00;68.20;;;;;;5000252;28;20460;-79
2022/11/05 13:55:01;;;;;;;2.10;1.90;;;22.00;68.20;;;;;;4993506;28;20513;-75
2022/11/05 13:57:46;;;;;;;1.67;1.57;;;22.00;68.20;;;;;;4998813;28;20454;-76
2022/11/05 14:00:20;;;;;;;1.60;1.30;;;22.00;68.20;;;;;;5007570;28;20460;-74
2022/11/05 14:02:51;;;;;;;2.03;1.93;;;22.00;68.20;;;;;;5001852;28;20847;-77